Time;durP1;ratioP1;P1;durP2;ratioP2;P2;SDS_P1;SDS_P2;PMS_P1;PMS_P2;Temp;Humidity;BMP_temperature;BMP_pressure;BME280_temperature;BME280_humidity;BME280_pressure;Samples;Min_cycle;Max_cycle;Signal;HPM_P1;HPM_P2
2022/03/29 00:02:04;;;;;;;1.60;0.95;;;1.70;98.10;;;;;;5094582;28;20028;-77
2022/03/29 00:04:30;;;;;;;1.70;1.05;;;1.60;98.10;;;;;;5094615;28;20030;-77
2022/03/29 00:06:56;;;;;;;4.80;2.83;;;1.70;98.20;;;;;;5094521;28;20031;-76
2022/03/29 00:09:22;;;;;;;1.33;0.82;;;1.60;98.10;;;;;;5094240;28;20036;-76
2022/03/29 00:11:48;;;;;;;3.85;1.30;;;1.60;98.10;;;;;;5094331;28;20381;-76
2022/03/29 00:14:14;;;;;;;3.90;1.45;;;1.60;98.20;;;;;;5093045;28;20036;-77
2022/03/29 00:16:41;;;;;;;1.27;1.00;;;1.70;98.20;;;;;;5094199;28;20028;-78
2022/03/29 00:19:08;;;;;;;1.77;0.85;;;1.70;98.20;;;;;;5094128;28;20032;-77
2022/03/29 00:21:34;;;;;;;3.88;1.35;;;1.80;98.00;;;;;;5094316;28;20028;-77
2022/03/29 00:24:00;;;;;;;1.77;0.90;;;1.80;97.90;;;;;;5094385;28;20008;-76
2022/03/29 00:26:27;;;;;;;1.40;1.05;;;1.90;97.90;;;;;;5094573;28;20039;-78
2022/03/29 00:28:53;;;;;;;2.33;1.42;;;1.90;97.70;;;;;;5094002;28;20051;-76
2022/03/29 00:31:22;;;;;;;2.75;1.25;;;1.90;97.70;;;;;;5094665;28;20055;-77
2022/03/29 00:33:48;;;;;;;2.22;1.30;;;2.00;97.70;;;;;;5093967;28;20013;-77
2022/03/29 00:36:15;;;;;;;2.05;1.52;;;2.00;97.60;;;;;;5093921;28;20028;-78
2022/03/29 00:38:41;;;;;;;2.72;1.38;;;2.00;97.40;;;;;;5093801;28;20107;-77
2022/03/29 00:41:08;;;;;;;2.25;1.45;;;2.00;97.30;;;;;;5094249;28;20095;-77
2022/03/29 00:43:34;;;;;;;2.78;1.10;;;1.90;97.40;;;;;;5094610;28;20104;-77
2022/03/29 00:45:59;;;;;;;10.68;1.92;;;1.90;97.40;;;;;;5094027;28;20074;-77
2022/03/29 00:48:26;;;;;;;2.22;1.20;;;1.80;97.40;;;;;;5094008;28;20480;-76
2022/03/29 00:51:10;;;;;;;1.63;1.10;;;1.70;97.60;;;;;;5093566;28;20064;-77
2022/03/29 00:53:36;;;;;;;1.90;1.17;;;1.60;97.70;;;;;;5092281;28;20031;-77
2022/03/29 00:56:02;;;;;;;1.52;0.90;;;1.60;97.90;;;;;;5093395;28;20024;-78
2022/03/29 00:58:28;;;;;;;3.42;1.50;;;1.60;98.00;;;;;;5092090;28;20519;-77
2022/03/29 01:00:58;;;;;;;1.10;1.00;;;1.60;97.90;;;;;;5093390;28;20032;-77
2022/03/29 01:03:25;;;;;;;1.08;0.70;;;1.60;97.90;;;;;;5093931;28;20101;-77
2022/03/29 01:05:51;;;;;;;3.45;1.40;;;1.50;98.00;;;;;;5093515;28;20031;-76
2022/03/29 01:08:17;;;;;;;3.42;0.80;;;1.40;98.00;;;;;;5091990;28;20028;-77
2022/03/29 01:10:45;;;;;;;3.33;1.25;;;1.40;98.10;;;;;;5093018;28;20044;-78
2022/03/29 01:13:11;;;;;;;;;;;1.30;98.10;;;;;;5093802;28;20016;-76
2022/03/29 01:15:37;;;;;;;2.72;1.45;;;1.30;98.10;;;;;;5093124;28;19904;-77
2022/03/29 01:18:05;;;;;;;3.85;1.25;;;1.20;98.20;;;;;;5093243;28;20023;-78
2022/03/29 01:20:31;;;;;;;;;;;1.20;98.30;;;;;;5093694;28;20024;-76
2022/03/29 01:22:59;;;;;;;2.35;1.25;;;1.10;98.20;;;;;;5091776;28;19908;-76
2022/03/29 01:25:35;;;;;;;6.78;1.70;;;1.10;98.40;;;;;;5091570;28;20066;-76
2022/03/29 01:28:03;;;;;;;1.90;1.15;;;1.10;98.50;;;;;;5093228;28;20028;-78
2022/03/29 01:30:30;;;;;;;2.35;1.10;;;1.20;98.50;;;;;;5093599;28;20028;-78
2022/03/29 01:32:56;;;;;;;1.88;1.13;;;1.10;98.60;;;;;;5093382;28;20020;-77
2022/03/29 01:35:25;;;;;;;2.92;1.15;;;1.20;98.80;;;;;;5093643;28;20095;-77
2022/03/29 01:37:52;;;;;;;1.70;1.20;;;1.20;98.80;;;;;;5093922;28;20444;-76
2022/03/29 01:40:20;;;;;;;2.10;1.17;;;1.30;98.80;;;;;;5093861;28;20024;-78
2022/03/29 01:43:01;;;;;;;3.13;0.80;;;1.40;98.60;;;;;;5093532;28;20032;-77
2022/03/29 01:45:31;;;;;;;4.40;1.25;;;1.50;98.50;;;;;;5092764;28;20028;-77
2022/03/29 01:47:58;;;;;;;1.90;0.95;;;1.60;98.30;;;;;;5092588;28;20020;-76
2022/03/29 01:50:24;;;;;;;2.33;0.83;;;1.60;98.20;;;;;;5092249;28;20031;-77
2022/03/29 01:52:50;;;;;;;2.35;1.15;;;1.60;98.30;;;;;;5092914;28;20557;-76
2022/03/29 01:55:18;;;;;;;1.83;1.60;;;1.70;98.00;;;;;;5090934;28;20044;-77
2022/03/29 01:57:45;;;;;;;3.95;1.20;;;1.70;97.80;;;;;;5091077;28;20040;-75
2022/03/29 02:02:57;;;;;;;1.58;1.15;;;1.80;97.40;;;;;;5092538;28;20043;-77
2022/03/29 02:05:23;;;;;;;4.13;1.33;;;1.80;97.40;;;;;;5092547;28;20408;-76
2022/03/29 02:07:50;;;;;;;3.80;1.13;;;1.80;97.30;;;;;;5093033;28;20492;-78
2022/03/29 02:10:22;;;;;;;1.52;0.93;;;1.90;97.20;;;;;;5092257;28;20058;-77
2022/03/29 02:12:49;;;;;;;2.08;1.58;;;1.90;97.10;;;;;;5092209;28;20059;-77
2022/03/29 02:15:15;;;;;;;2.80;1.88;;;1.90;97.10;;;;;;5092040;28;20020;-77
2022/03/29 02:17:44;;;;;;;3.33;1.40;;;1.90;97.00;;;;;;5092104;28;20020;-77
2022/03/29 02:20:11;;;;;;;3.63;1.00;;;1.90;97.00;;;;;;5091777;28;20032;-76
2022/03/29 02:22:36;;;;;;;1.40;1.00;;;2.00;97.00;;;;;;5091805;28;20060;-77
2022/03/29 02:25:02;;;;;;;2.08;1.13;;;2.00;96.90;;;;;;5073665;28;20062;-77
2022/03/29 02:27:28;;;;;;;1.52;0.90;;;1.90;96.80;;;;;;5091935;28;20108;-76
2022/03/29 02:29:54;;;;;;;2.05;1.02;;;1.90;96.60;;;;;;5091882;28;20083;-79
2022/03/29 02:32:20;;;;;;;1.85;1.20;;;1.90;96.70;;;;;;5092013;28;20020;-76
2022/03/29 02:34:46;;;;;;;2.58;1.00;;;1.90;96.60;;;;;;5091907;28;20149;-76
2022/03/29 02:37:13;;;;;;;1.90;1.08;;;2.00;96.60;;;;;;5091984;28;20024;-77
2022/03/29 02:39:39;;;;;;;1.48;0.95;;;2.00;96.60;;;;;;5091978;28;20029;-74
2022/03/29 02:42:06;;;;;;;1.70;1.10;;;2.00;96.60;;;;;;5092003;28;20028;-77
2022/03/29 02:44:32;;;;;;;1.88;1.05;;;2.00;96.40;;;;;;5091836;28;20260;-75
2022/03/29 02:46:59;;;;;;;3.28;1.13;;;2.00;96.30;;;;;;5091805;28;20049;-75
2022/03/29 02:49:25;;;;;;;1.73;0.95;;;2.00;96.30;;;;;;5091514;28;20028;-76
2022/03/29 02:51:51;;;;;;;5.32;1.10;;;2.00;96.30;;;;;;5091704;28;20012;-77
2022/03/29 02:54:23;;;;;;;1.77;1.27;;;2.00;96.30;;;;;;5073562;28;20486;-76
2022/03/29 02:56:50;;;;;;;3.10;1.48;;;2.00;96.20;;;;;;5091607;28;20260;-75
2022/03/29 02:59:16;;;;;;;6.63;1.73;;;2.00;96.10;;;;;;5091581;28;20489;-76
2022/03/29 03:01:42;;;;;;;2.65;1.73;;;2.00;96.00;;;;;;5091631;28;20257;-75
2022/03/29 03:04:08;;;;;;;4.93;1.42;;;2.00;95.90;;;;;;5095413;28;20066;-76
2022/03/29 03:06:36;;;;;;;2.35;0.90;;;1.90;95.80;;;;;;5095809;28;20024;-77
2022/03/29 03:09:02;;;;;;;1.25;1.00;;;1.80;95.80;;;;;;5095304;28;20436;-78
2022/03/29 03:11:28;;;;;;;3.35;1.33;;;1.80;95.80;;;;;;5095527;28;20104;-77
2022/03/29 03:13:53;;;;;;;3.13;1.60;;;1.70;95.80;;;;;;5095048;28;20469;-76
2022/03/29 03:16:19;;;;;;;6.40;1.83;;;1.70;95.80;;;;;;5095340;28;20052;-77
2022/03/29 03:18:45;;;;;;;5.07;1.67;;;1.60;95.80;;;;;;5095409;28;20012;-78
2022/03/29 03:21:11;;;;;;;3.67;1.90;;;1.60;95.90;;;;;;5095439;28;20032;-76
2022/03/29 03:23:37;;;;;;;2.75;1.52;;;1.60;96.00;;;;;;5111051;28;20090;-77
2022/03/29 03:26:02;;;;;;;6.60;1.27;;;1.50;96.00;;;;;;5061569;28;20029;-79
2022/03/29 03:28:28;;;;;;;2.30;1.45;;;1.40;96.10;;;;;;5083604;28;20020;-76
2022/03/29 03:30:54;;;;;;;1.70;1.48;;;1.50;96.20;;;;;;5094967;28;20094;-75
2022/03/29 03:33:20;;;;;;;2.25;1.35;;;1.40;96.30;;;;;;5095260;28;20389;-77
2022/03/29 03:35:46;;;;;;;2.65;1.30;;;1.40;96.60;;;;;;5094852;28;20032;-76
2022/03/29 03:38:12;;;;;;;1.48;1.30;;;1.40;96.40;;;;;;5095103;28;20027;-77
2022/03/29 03:40:38;;;;;;;5.35;1.55;;;1.40;96.40;;;;;;5094915;28;20059;-75
2022/03/29 03:43:04;;;;;;;2.30;1.30;;;1.40;96.40;;;;;;5094864;28;20393;-76
2022/03/29 03:45:30;;;;;;;3.17;1.35;;;1.30;96.40;;;;;;5076670;28;20024;-76
2022/03/29 03:47:56;;;;;;;5.57;1.65;;;1.30;96.50;;;;;;5076502;28;20032;-75
2022/03/29 03:50:22;;;;;;;2.40;1.58;;;1.40;96.50;;;;;;5094566;28;20032;-75
2022/03/29 03:52:49;;;;;;;2.10;1.05;;;1.50;96.60;;;;;;5094770;28;20028;-75
2022/03/29 03:55:15;;;;;;;2.17;1.40;;;1.70;96.60;;;;;;5094834;28;20424;-79
2022/03/29 03:57:47;;;;;;;1.75;0.93;;;1.80;96.40;;;;;;5094922;28;20032;-77
2022/03/29 04:00:13;;;;;;;2.85;1.50;;;1.90;96.10;;;;;;5076260;28;20028;-78
2022/03/29 04:02:39;;;;;;;2.63;1.40;;;1.90;95.80;;;;;;5094521;28;20477;-78
2022/03/29 04:05:08;;;;;;;1.63;1.25;;;2.00;95.70;;;;;;5094723;28;20493;-76
2022/03/29 04:07:34;;;;;;;2.78;1.75;;;2.10;95.60;;;;;;5095390;28;20020;-76
2022/03/29 04:10:00;;;;;;;2.90;1.70;;;2.20;95.50;;;;;;5095485;28;20492;-76
2022/03/29 04:12:27;;;;;;;3.67;1.45;;;2.30;95.40;;;;;;5093864;28;20097;-77
2022/03/29 04:14:54;;;;;;;4.72;2.50;;;2.30;95.10;;;;;;5096391;28;20089;-76
2022/03/29 04:17:20;;;;;;;2.65;1.50;;;2.40;95.00;;;;;;5096684;28;20024;-78
2022/03/29 04:19:46;;;;;;;1.95;1.77;;;2.40;94.80;;;;;;5094278;28;20051;-75
2022/03/29 04:22:12;;;;;;;5.97;2.10;;;2.40;94.60;;;;;;5093999;28;20045;-76
2022/03/29 04:24:41;;;;;;;3.88;2.08;;;2.40;94.50;;;;;;5093962;28;20032;-75
2022/03/29 04:27:06;;;;;;;2.55;1.88;;;2.40;94.60;;;;;;5075643;28;20028;-75
2022/03/29 04:29:32;;;;;;;4.57;1.70;;;2.50;94.60;;;;;;5075499;28;20093;-76
2022/03/29 04:31:58;;;;;;;8.05;2.10;;;2.60;94.40;;;;;;5076102;28;20030;-76
2022/03/29 04:34:25;;;;;;;4.05;2.20;;;2.70;94.70;;;;;;5094119;28;20078;-78
2022/03/29 04:36:50;;;;;;;2.78;2.35;;;2.70;94.20;;;;;;5094091;28;20028;-76
2022/03/29 04:39:16;;;;;;;3.50;2.65;;;2.70;94.10;;;;;;5076149;28;20039;-76
2022/03/29 04:41:42;;;;;;;5.78;2.70;;;2.60;94.10;;;;;;5094924;28;20060;-76
2022/03/29 04:44:08;;;;;;;4.57;1.77;;;2.70;94.20;;;;;;5093954;28;20035;-77
2022/03/29 04:46:34;;;;;;;6.38;3.22;;;2.70;94.10;;;;;;5093832;28;20031;-78
2022/03/29 04:48:59;;;;;;;3.63;2.53;;;2.70;94.00;;;;;;5093812;28;20024;-76
2022/03/29 04:51:25;;;;;;;4.50;2.47;;;2.70;94.00;;;;;;5086224;28;20052;-78
2022/03/29 04:53:51;;;;;;;6.07;2.58;;;2.90;93.90;;;;;;5073236;28;20470;-78
2022/03/29 04:56:17;;;;;;;4.45;2.28;;;3.00;93.80;;;;;;5057123;28;20074;-77
2022/03/29 04:58:43;;;;;;;4.80;2.70;;;3.00;93.50;;;;;;5075383;28;20020;-81
2022/03/29 05:01:09;;;;;;;4.10;2.25;;;3.00;93.30;;;;;;5075384;28;20468;-78
2022/03/29 05:03:35;;;;;;;5.40;2.35;;;2.90;93.30;;;;;;5055918;28;20040;-77
2022/03/29 05:06:00;;;;;;;7.22;2.25;;;3.00;93.40;;;;;;5055699;28;20024;-78
2022/03/29 05:08:26;;;;;;;4.60;2.75;;;3.00;93.30;;;;;;5073621;28;20082;-78
2022/03/29 05:10:52;;;;;;;3.55;2.22;;;3.00;93.40;;;;;;5082097;28;20056;-79
2022/03/29 05:13:18;;;;;;;6.93;2.33;;;3.00;93.30;;;;;;5093044;28;20147;-76
2022/03/29 05:15:44;;;;;;;4.55;2.42;;;3.00;93.30;;;;;;5093322;28;20032;-78
2022/03/29 05:18:10;;;;;;;4.38;2.28;;;3.00;93.30;;;;;;5093108;28;20531;-79
2022/03/29 05:20:36;;;;;;;7.60;2.80;;;3.00;93.40;;;;;;5075246;28;20079;-78
2022/03/29 05:23:06;;;;;;;8.27;3.92;;;3.10;93.30;;;;;;5092940;28;20059;-79
2022/03/29 05:25:32;;;;;;;4.45;2.33;;;3.20;93.20;;;;;;5073371;28;20028;-78
2022/03/29 05:27:58;;;;;;;4.03;2.67;;;3.30;93.00;;;;;;5092489;28;20024;-78
2022/03/29 05:30:25;;;;;;;3.45;2.03;;;3.50;92.90;;;;;;5092572;28;20028;-78
2022/03/29 05:32:57;;;;;;;3.70;2.20;;;3.70;92.40;;;;;;5092388;28;20020;-77
2022/03/29 05:35:25;;;;;;;5.78;1.88;;;3.70;92.30;;;;;;5092661;28;20020;-79
2022/03/29 05:37:51;;;;;;;3.13;1.88;;;3.70;92.50;;;;;;5092522;28;20070;-78
2022/03/29 05:40:17;;;;;;;7.40;2.90;;;3.70;92.50;;;;;;5092891;28;20020;-79
2022/03/29 05:42:44;;;;;;;5.25;2.00;;;3.70;92.40;;;;;;5093331;28;20421;-78
2022/03/29 05:45:12;;;;;;;4.03;2.13;;;3.60;92.00;;;;;;5092846;28;20036;-80
2022/03/29 05:50:25;;;;;;;6.72;2.33;;;3.40;92.30;;;;;;5092815;28;20127;-80
2022/03/29 05:52:51;;;;;;;1.45;1.17;;;3.20;92.50;;;;;;5092086;28;20047;-79
2022/03/29 05:55:17;;;;;;;2.45;1.10;;;3.00;92.00;;;;;;5092311;28;20378;-79
2022/03/29 05:57:43;;;;;;;1.73;1.15;;;2.40;92.90;;;;;;5073929;28;20020;-76
2022/03/29 06:00:11;;;;;;;1.40;1.23;;;1.70;94.40;;;;;;5092303;28;20126;-77
2022/03/29 06:02:38;;;;;;;1.73;1.20;;;1.20;95.50;;;;;;5092387;28;20016;-77
2022/03/29 06:05:04;;;;;;;2.03;1.55;;;0.90;96.50;;;;;;5073842;28;20024;-78
2022/03/29 06:07:30;;;;;;;1.55;1.02;;;0.80;97.20;;;;;;5092105;28;20012;-78
2022/03/29 06:09:56;;;;;;;3.53;1.92;;;0.70;97.60;;;;;;5091726;28;20062;-76
2022/03/29 06:12:22;;;;;;;4.32;1.70;;;0.70;98.10;;;;;;5092077;28;20123;-77
2022/03/29 06:14:49;;;;;;;2.00;1.63;;;0.70;98.40;;;;;;5091995;28;20020;-78
2022/03/29 06:17:15;;;;;;;1.53;1.13;;;0.70;98.60;;;;;;5073810;28;20047;-77
2022/03/29 06:19:42;;;;;;;3.20;1.58;;;0.70;98.70;;;;;;5091859;28;20063;-79
2022/03/29 06:22:08;;;;;;;1.60;1.17;;;0.70;98.60;;;;;;5073567;28;20024;-77
2022/03/29 06:24:34;;;;;;;2.70;1.73;;;0.80;98.70;;;;;;5091860;28;20035;-77
2022/03/29 06:27:00;;;;;;;2.65;1.67;;;0.80;98.10;;;;;;5091855;28;20017;-81
2022/03/29 06:29:26;;;;;;;1.35;1.20;;;0.90;96.90;;;;;;5073581;28;20040;-80
2022/03/29 06:31:52;;;;;;;4.47;1.85;;;0.90;96.00;;;;;;5091846;28;20028;-76
2022/03/29 06:34:18;;;;;;;4.15;2.15;;;0.90;95.10;;;;;;5073409;28;20393;-76
2022/03/29 06:36:43;;;;;;;4.35;1.65;;;0.80;94.70;;;;;;5072228;28;20024;-76
2022/03/29 06:39:12;;;;;;;1.42;1.27;;;0.80;94.80;;;;;;5095075;28;20452;-78
2022/03/29 06:41:38;;;;;;;1.67;1.40;;;0.80;94.70;;;;;;5095483;28;20102;-76
2022/03/29 06:44:07;;;;;;;1.63;1.33;;;0.80;94.50;;;;;;5095297;28;20488;-78
2022/03/29 06:46:34;;;;;;;4.05;1.27;;;0.80;93.70;;;;;;5095576;28;20413;-77
2022/03/29 06:49:02;;;;;;;2.10;1.45;;;0.90;93.60;;;;;;5095459;28;20024;-77
2022/03/29 06:51:29;;;;;;;2.20;1.42;;;1.10;93.30;;;;;;5077694;28;20185;-80
2022/03/29 06:53:55;;;;;;;2.20;1.50;;;1.30;92.70;;;;;;5065289;28;20120;-76
2022/03/29 06:56:21;;;;;;;2.42;1.63;;;1.40;92.50;;;;;;5095453;28;20066;-76
2022/03/29 06:58:47;;;;;;;1.90;1.30;;;1.50;92.40;;;;;;5095658;28;20020;-77
2022/03/29 07:01:13;;;;;;;1.70;1.30;;;1.60;92.10;;;;;;5095716;28;20330;-76
2022/03/29 07:03:39;;;;;;;2.78;1.58;;;1.60;91.80;;;;;;5112270;28;20020;-77
2022/03/29 07:06:05;;;;;;;3.63;1.52;;;1.80;91.50;;;;;;5095873;28;20012;-77
2022/03/29 07:08:32;;;;;;;1.42;1.30;;;2.00;91.10;;;;;;5096286;28;20036;-78
2022/03/29 07:11:17;;;;;;;1.65;1.10;;;2.20;90.30;;;;;;5064793;28;20097;-75
2022/03/29 07:13:44;;;;;;;3.88;1.80;;;2.30;87.50;;;;;;5095370;28;20078;-79
2022/03/29 07:16:12;;;;;;;1.10;1.00;;;2.20;86.60;;;;;;5077294;28;20115;-78
2022/03/29 07:18:38;;;;;;;2.40;1.73;;;2.20;87.30;;;;;;5095130;28;20028;-77
2022/03/29 07:21:04;;;;;;;2.00;1.17;;;2.30;87.30;;;;;;5077125;28;20039;-78
2022/03/29 07:23:30;;;;;;;3.75;1.58;;;2.30;85.50;;;;;;5095449;28;20029;-76
2022/03/29 07:25:57;;;;;;;3.13;1.63;;;2.20;84.70;;;;;;5077354;28;20024;-78
2022/03/29 07:28:23;;;;;;;2.45;1.73;;;2.10;84.10;;;;;;5094586;28;20040;-76
2022/03/29 07:30:50;;;;;;;6.10;1.50;;;2.20;84.40;;;;;;5095201;28;20040;-77
2022/03/29 07:33:25;;;;;;;1.80;1.33;;;2.20;83.50;;;;;;5095429;28;20134;-78
2022/03/29 07:35:51;;;;;;;4.35;1.98;;;2.30;82.60;;;;;;5095126;28;20544;-76
2022/03/29 07:38:17;;;;;;;5.97;1.85;;;2.20;82.20;;;;;;5094972;28;20103;-77
2022/03/29 07:40:44;;;;;;;4.32;1.98;;;2.20;84.10;;;;;;5094740;28;20082;-77
2022/03/29 07:43:11;;;;;;;2.75;1.70;;;2.40;82.30;;;;;;5094764;28;20020;-78
2022/03/29 07:45:38;;;;;;;2.08;1.45;;;2.40;82.10;;;;;;5093703;28;20334;-77
2022/03/29 07:48:04;;;;;;;5.03;1.40;;;2.50;82.50;;;;;;5094533;28;20491;-76
2022/03/29 07:50:33;;;;;;;3.58;1.77;;;2.50;81.50;;;;;;5093236;28;20508;-76
2022/03/29 07:53:00;;;;;;;1.95;1.75;;;2.60;82.10;;;;;;5094218;28;20478;-77
2022/03/29 07:55:26;;;;;;;3.10;1.95;;;2.80;82.00;;;;;;5094541;28;20047;-76
2022/03/29 07:57:52;;;;;;;3.27;1.97;;;3.10;81.00;;;;;;5094623;28;20024;-77
2022/03/29 08:00:35;;;;;;;2.22;1.83;;;3.30;79.50;;;;;;5075404;28;20051;-75
2022/03/29 08:03:06;;;;;;;3.40;2.42;;;3.50;78.30;;;;;;5094655;28;20619;-78
2022/03/29 08:05:33;;;;;;;2.83;1.52;;;3.50;77.60;;;;;;5094665;28;20027;-77
2022/03/29 08:08:00;;;;;;;3.40;2.03;;;3.40;77.00;;;;;;5094636;28;20024;-76
2022/03/29 08:10:28;;;;;;;2.45;1.70;;;3.40;77.90;;;;;;5094163;28;20059;-77
2022/03/29 08:12:58;;;;;;;1.88;1.67;;;3.30;76.70;;;;;;5076374;28;20039;-76
2022/03/29 08:15:24;;;;;;;2.63;2.20;;;3.10;76.70;;;;;;5093953;28;20020;-77
2022/03/29 08:17:50;;;;;;;4.55;1.65;;;2.90;77.70;;;;;;5094100;28;20059;-76
2022/03/29 08:20:17;;;;;;;2.65;1.83;;;3.00;78.20;;;;;;5094262;28;20028;-77
2022/03/29 08:22:47;;;;;;;4.93;2.20;;;3.20;76.80;;;;;;5094197;28;20020;-75
2022/03/29 08:25:14;;;;;;;3.15;2.05;;;3.10;76.70;;;;;;5093770;28;20299;-77
2022/03/29 08:27:40;;;;;;;3.05;2.38;;;3.00;76.80;;;;;;5092907;28;20020;-75
2022/03/29 08:30:07;;;;;;;2.90;1.88;;;3.20;77.30;;;;;;5093806;28;20488;-76
2022/03/29 08:32:35;;;;;;;7.53;2.75;;;3.40;76.40;;;;;;5093916;28;20028;-76
2022/03/29 08:35:02;;;;;;;3.83;2.80;;;3.70;75.30;;;;;;5092580;28;20020;-76
2022/03/29 08:37:28;;;;;;;2.53;1.83;;;3.90;75.00;;;;;;5092567;28;20028;-78
2022/03/29 08:39:55;;;;;;;3.85;1.55;;;4.10;73.40;;;;;;5093902;28;20020;-77
2022/03/29 08:42:23;;;;;;;3.17;1.80;;;4.00;72.30;;;;;;5093713;28;20889;-75
2022/03/29 08:44:50;;;;;;;1.67;1.58;;;3.80;72.30;;;;;;5093359;28;20036;-77
2022/03/29 08:47:16;;;;;;;3.75;1.60;;;3.90;73.10;;;;;;5094053;28;20479;-77
2022/03/29 08:49:44;;;;;;;2.80;1.65;;;3.90;72.30;;;;;;5093400;28;20023;-76
2022/03/29 08:52:11;;;;;;;3.90;1.63;;;3.80;72.10;;;;;;5093361;28;20449;-76
2022/03/29 08:54:38;;;;;;;5.75;1.90;;;3.60;72.80;;;;;;5093698;28;20031;-76
2022/03/29 08:57:04;;;;;;;3.25;1.83;;;3.50;72.60;;;;;;5093867;28;20028;-77
2022/03/29 08:59:30;;;;;;;2.65;1.95;;;3.40;73.40;;;;;;5093207;28;20103;-75
2022/03/29 09:01:57;;;;;;;2.83;2.10;;;3.50;74.10;;;;;;5093276;28;20070;-76
2022/03/29 09:04:24;;;;;;;5.70;3.30;;;3.70;73.50;;;;;;5093432;28;20021;-76
2022/03/29 09:06:50;;;;;;;2.45;1.70;;;3.80;74.00;;;;;;5093110;28;20253;-74
2022/03/29 09:09:23;;;;;;;4.90;2.20;;;3.90;73.10;;;;;;5074559;28;20173;-77
2022/03/29 09:11:50;;;;;;;2.75;1.58;;;3.80;71.80;;;;;;5093082;28;20103;-78
2022/03/29 09:14:20;;;;;;;2.50;2.20;;;3.70;72.00;;;;;;5093502;28;20461;-75
2022/03/29 09:16:46;;;;;;;2.30;1.65;;;3.60;72.40;;;;;;5092271;28;20066;-76
2022/03/29 09:19:12;;;;;;;2.58;1.70;;;3.50;73.20;;;;;;5093358;28;20020;-77
2022/03/29 09:21:43;;;;;;;4.55;2.15;;;3.30;73.10;;;;;;5093504;28;20465;-76
2022/03/29 09:24:19;;;;;;;2.53;1.95;;;3.30;74.30;;;;;;5093051;28;20035;-78
2022/03/29 09:26:47;;;;;;;4.33;2.73;;;3.60;74.80;;;;;;5093371;28;20035;-77
2022/03/29 09:29:19;;;;;;;4.15;2.17;;;3.70;75.60;;;;;;5092974;28;20474;-76
2022/03/29 09:31:47;;;;;;;4.75;2.17;;;3.70;74.50;;;;;;5093317;28;20024;-76
2022/03/29 09:34:20;;;;;;;5.50;2.60;;;3.60;74.40;;;;;;5073731;28;20028;-76
2022/03/29 09:36:52;;;;;;;2.80;2.33;;;3.50;76.50;;;;;;5093542;28;20415;-76
2022/03/29 09:39:44;;;;;;;4.15;2.72;;;3.70;77.60;;;;;;5093052;28;20024;-76
2022/03/29 09:42:12;;;;;;;5.75;3.45;;;3.80;77.20;;;;;;5073368;28;20146;-77
2022/03/29 09:44:42;;;;;;;7.15;4.40;;;3.90;77.20;;;;;;5092756;28;20531;-77
2022/03/29 09:47:09;;;;;;;5.40;3.17;;;4.10;76.80;;;;;;5092787;28;20020;-76
2022/03/29 09:50:11;;;;;;;3.47;2.22;;;4.20;75.70;;;;;;5092740;28;20031;-78
2022/03/29 09:52:39;;;;;;;3.53;2.40;;;4.30;74.10;;;;;;5051000;28;20058;-78
2022/03/29 09:55:09;;;;;;;2.70;2.33;;;4.20;73.80;;;;;;5077167;28;20044;-78
2022/03/29 09:57:42;;;;;;;3.88;2.45;;;4.20;73.50;;;;;;5074058;28;20422;-77
2022/03/29 10:00:10;;;;;;;5.38;3.47;;;4.20;73.00;;;;;;5092258;28;20016;-77
2022/03/29 10:02:40;;;;;;;3.45;2.55;;;4.40;73.30;;;;;;5092522;28;20133;-77
2022/03/29 10:05:08;;;;;;;2.20;1.83;;;4.50;72.30;;;;;;5092107;28;20392;-76
2022/03/29 10:10:49;;;;;;;5.60;3.55;;;4.60;70.10;;;;;;5091989;28;20149;-77
2022/03/29 10:13:25;;;;;;;4.40;2.13;;;4.60;72.00;;;;;;5091690;28;20016;-77
2022/03/29 10:15:53;;;;;;;2.97;2.67;;;5.10;71.60;;;;;;5091546;28;20404;-77
2022/03/29 10:18:21;;;;;;;2.97;2.33;;;5.40;68.80;;;;;;5091940;28;20257;-76
2022/03/29 10:20:48;;;;;;;4.53;2.88;;;5.50;68.20;;;;;;5092574;28;20063;-75
2022/03/29 10:23:18;;;;;;;3.70;2.65;;;5.50;68.30;;;;;;5094158;28;20020;-77
2022/03/29 10:25:47;;;;;;;4.05;2.45;;;5.40;67.80;;;;;;5075565;28;20444;-78
2022/03/29 10:28:13;;;;;;;5.25;3.45;;;5.20;67.50;;;;;;5093482;28;20020;-77
2022/03/29 10:30:41;;;;;;;5.07;3.20;;;5.20;68.60;;;;;;5093142;28;20036;-79
2022/03/29 10:33:24;;;;;;;5.05;3.33;;;5.20;69.00;;;;;;5092138;28;20059;-78
2022/03/29 10:36:17;;;;;;;5.05;2.92;;;5.10;69.60;;;;;;5092323;28;20516;-78
2022/03/29 10:38:43;;;;;;;3.20;2.00;;;4.90;69.30;;;;;;5089564;28;20127;-77
2022/03/29 10:41:31;;;;;;;3.90;2.50;;;4.70;69.20;;;;;;5073945;28;20127;-77
2022/03/29 10:44:04;;;;;;;3.58;2.15;;;4.60;69.10;;;;;;5091963;28;20039;-78
2022/03/29 10:46:51;;;;;;;3.35;1.85;;;4.60;68.00;;;;;;5092020;28;20020;-77
2022/03/29 10:49:24;;;;;;;5.68;2.28;;;4.50;68.30;;;;;;5090907;28;20492;-76
2022/03/29 10:52:19;;;;;;;4.03;2.85;;;4.40;68.90;;;;;;5082584;28;20024;-76
2022/03/29 10:54:45;;;;;;;3.85;2.92;;;4.50;69.20;;;;;;5091348;28;20020;-77
2022/03/29 10:57:14;;;;;;;2.47;1.70;;;4.40;69.40;;;;;;5091872;28;20016;-77
2022/03/29 10:59:40;;;;;;;4.63;2.33;;;4.30;69.20;;;;;;5091863;28;20473;-77
2022/03/29 11:02:08;;;;;;;4.10;2.72;;;4.20;69.20;;;;;;5091494;28;20136;-75
2022/03/29 11:04:34;;;;;;;4.30;3.00;;;4.00;69.80;;;;;;5087571;28;20493;-76
2022/03/29 11:07:06;;;;;;;4.65;2.67;;;3.90;70.50;;;;;;5090748;28;20505;-78
2022/03/29 11:09:33;;;;;;;7.28;3.13;;;3.70;70.70;;;;;;5073016;28;20137;-77
2022/03/29 11:11:59;;;;;;;2.60;1.85;;;3.90;71.00;;;;;;5091292;28;20373;-79
2022/03/29 11:14:28;;;;;;;3.17;2.22;;;4.00;70.30;;;;;;5091410;28;20039;-77
2022/03/29 11:17:10;;;;;;;9.93;5.20;;;3.90;69.90;;;;;;5073574;28;20020;-77
2022/03/29 11:19:51;;;;;;;5.53;3.00;;;3.90;70.40;;;;;;5073367;28;20068;-75
2022/03/29 11:22:24;;;;;;;3.70;2.72;;;4.00;70.60;;;;;;5092606;28;20024;-77
2022/03/29 11:24:54;;;;;;;4.30;3.30;;;4.10;70.10;;;;;;5094665;28;20024;-76
2022/03/29 11:27:24;;;;;;;4.20;2.25;;;4.30;70.50;;;;;;5095701;28;20460;-76
2022/03/29 11:29:50;;;;;;;4.10;2.78;;;4.30;70.00;;;;;;5095539;28;20028;-77
2022/03/29 11:32:17;;;;;;;4.53;2.58;;;4.30;69.80;;;;;;5095304;28;20039;-78
2022/03/29 11:34:44;;;;;;;4.88;2.60;;;4.30;70.50;;;;;;5095325;28;20378;-76
2022/03/29 11:37:41;;;;;;;3.57;2.70;;;4.30;69.60;;;;;;5095070;28;20055;-78
2022/03/29 11:40:13;;;;;;;3.17;2.40;;;4.20;69.80;;;;;;5076741;28;20040;-76
2022/03/29 11:42:45;;;;;;;3.45;2.22;;;4.10;69.90;;;;;;5094760;28;20043;-76
2022/03/29 11:45:13;;;;;;;5.97;3.13;;;4.10;70.20;;;;;;5094864;28;20059;-78
2022/03/29 11:47:40;;;;;;;6.38;3.13;;;4.30;69.50;;;;;;5076513;28;20028;-76
2022/03/29 11:50:06;;;;;;;3.22;2.30;;;4.30;68.90;;;;;;5076110;28;20046;-76
2022/03/29 11:52:34;;;;;;;3.70;2.53;;;4.10;68.60;;;;;;5093322;28;20020;-75
2022/03/29 11:55:00;;;;;;;3.15;2.40;;;3.90;69.10;;;;;;5094426;28;20020;-76
2022/03/29 11:57:30;;;;;;;3.22;2.60;;;3.70;69.70;;;;;;5094594;28;20058;-76
2022/03/29 11:59:57;;;;;;;2.65;2.15;;;3.60;70.10;;;;;;5076518;28;20032;-78
2022/03/29 12:02:25;;;;;;;2.88;2.25;;;3.50;70.60;;;;;;5083602;28;20450;-77
2022/03/29 12:04:51;;;;;;;;;;;3.60;70.80;;;;;;5095141;28;20071;-76
2022/03/29 12:07:42;;;;;;;3.33;2.10;;;3.60;70.90;;;;;;5093942;28;19908;-78
2022/03/29 12:10:11;;;;;;;1.80;1.58;;;3.60;71.20;;;;;;5094133;28;20139;-77
2022/03/29 12:12:37;;;;;;;9.20;2.42;;;3.50;71.50;;;;;;5094323;28;20026;-78
2022/03/29 12:15:05;;;;;;;2.85;2.25;;;3.30;72.80;;;;;;5094457;28;20024;-76
2022/03/29 12:17:31;;;;;;;4.28;2.35;;;3.10;73.60;;;;;;5094258;28;20719;-77
2022/03/29 12:19:57;;;;;;;2.50;1.95;;;3.10;74.00;;;;;;5094485;28;20035;-77
2022/03/29 12:22:26;;;;;;;4.45;2.67;;;3.00;73.90;;;;;;5092939;28;20456;-76
2022/03/29 12:24:55;;;;;;;4.95;2.75;;;3.00;74.60;;;;;;5076147;28;20346;-78
2022/03/29 12:27:21;;;;;;;6.00;3.55;;;3.00;75.60;;;;;;5075688;28;20028;-78
2022/03/29 12:29:51;;;;;;;3.63;2.47;;;2.90;76.40;;;;;;5093937;28;20032;-77
2022/03/29 12:32:20;;;;;;;3.30;2.53;;;2.90;77.30;;;;;;5093964;28;20027;-77
2022/03/29 12:35:05;;;;;;;3.15;2.60;;;2.90;77.80;;;;;;5093687;28;20028;-78
2022/03/29 12:37:31;;;;;;;3.72;3.08;;;2.90;78.00;;;;;;5075920;28;20872;-77
2022/03/29 12:40:04;;;;;;;6.50;3.10;;;2.80;78.70;;;;;;5092675;28;20034;-79
2022/03/29 12:42:32;;;;;;;3.13;2.45;;;2.90;79.30;;;;;;5093819;28;20095;-77
2022/03/29 12:45:00;;;;;;;4.63;3.60;;;3.00;79.60;;;;;;5093850;28;20059;-76
2022/03/29 12:47:31;;;;;;;4.90;2.90;;;3.10;79.10;;;;;;5093084;28;20385;-75
2022/03/29 12:49:57;;;;;;;6.18;3.03;;;3.10;79.50;;;;;;5093676;28;20050;-77
2022/03/29 12:52:23;;;;;;;4.15;2.75;;;3.20;79.60;;;;;;5093531;28;20016;-78
2022/03/29 12:54:57;;;;;;;6.40;3.55;;;3.20;78.70;;;;;;5093368;28;20034;-77
2022/03/29 12:57:36;;;;;;;3.60;3.00;;;3.20;77.90;;;;;;5074415;28;20031;-77
2022/03/29 13:00:09;;;;;;;4.80;3.22;;;3.10;77.70;;;;;;5093843;28;20020;-78
2022/03/29 13:02:41;;;;;;;4.60;2.70;;;3.10;78.00;;;;;;5093252;28;20024;-78
2022/03/29 13:05:07;;;;;;;4.75;3.20;;;3.20;77.80;;;;;;5093421;28;20051;-77
2022/03/29 13:07:59;;;;;;;3.63;2.20;;;3.40;76.50;;;;;;5092274;28;20054;-76
2022/03/29 13:10:32;;;;;;;3.67;2.42;;;3.50;75.30;;;;;;5092913;28;20505;-78
2022/03/29 13:13:21;;;;;;;3.85;2.50;;;3.60;74.80;;;;;;5092934;28;20028;-75